Terminal Aerodrome Forecast
Issued by NWS Tulsa, OK

Home | Current Version | Previous Version | Text Only | Print | Product List | Glossary Off
Versions: 1 2 3 4 5 6 7 8 9 10 11 12 13 14 15 16

782
FTUS44 KTSA 191744
TAFFSM
TAF
KFSM 191744Z 1918/2018 12006KT 4SM BR OVC007
      TEMPO 1918/1920 2SM BR OVC004
     FM192000 11006KT P6SM OVC015
     FM200400 09005KT P6SM OVC007
     FM200700 09005KT 3SM BR OVC003
     FM201700 19010KT P6SM BKN020=

USA.gov is the U.S. government's official web portal to all federal, state and local government web resources and services.